Time;durP1;ratioP1;P1;durP2;ratioP2;P2;SDS_P1;SDS_P2;PMS_P1;PMS_P2;Temp;Humidity;BMP_temperature;BMP_pressure;BME280_temperature;BME280_humidity;BME280_pressure;Samples;Min_cycle;Max_cycle;Signal;HPM_P1;HPM_P2
2021/12/18 00:00:25;;;;;;;28.40;9.03;;;;;;;;;;5075180;28;20210;-81
2021/12/18 00:02:51;;;;;;;17.73;6.90;;;;;;;;;;5075065;28;20182;-81
2021/12/18 00:05:17;;;;;;;11.23;4.73;;;;;;;;;;5092443;28;20203;-81
2021/12/18 00:07:43;;;;;;;7.43;3.10;;;;;;;;;;5074915;28;20188;-81
2021/12/18 00:10:10;;;;;;;7.50;3.43;;;;;;;;;;5074799;28;20180;-82
2021/12/18 00:12:36;;;;;;;7.30;3.00;;;;;;;;;;5093038;28;20667;-81
2021/12/18 00:15:02;;;;;;;6.57;2.73;;;;;;;;;;5074510;28;20171;-82
2021/12/18 00:17:28;;;;;;;10.70;3.60;;;;;;;;;;5095956;28;20181;-82
2021/12/18 00:19:54;;;;;;;3.50;2.43;;;;;;;;;;5096671;28;20284;-82
2021/12/18 00:22:20;;;;;;;4.90;2.53;;;;;;;;;;5096819;28;20180;-82
2021/12/18 00:24:46;;;;;;;6.23;2.87;;;;;;;;;;5078626;28;20190;-82
2021/12/18 00:27:12;;;;;;;12.63;4.13;;;;;;;;;;5096354;28;20215;-82
2021/12/18 00:29:39;;;;;;;6.83;2.87;;;;;;;;;;5078516;28;20191;-82
2021/12/18 00:32:05;;;;;;;5.17;3.43;;;2.40;99.90;;;;;;5078295;28;20247;-82
2021/12/18 00:34:31;;;;;;;8.47;4.07;;;;;;;;;;5078502;28;20249;-82
2021/12/18 00:36:57;;;;;;;7.17;3.27;;;;;;;;;;5078742;28;20611;-81
2021/12/18 00:39:23;;;;;;;9.37;3.50;;;;;;;;;;5078294;28;20210;-81
2021/12/18 00:42:07;;;;;;;7.50;2.70;;;;;;;;;;5078336;28;20192;-81
2021/12/18 00:44:33;;;;;;;4.37;2.57;;;;;;;;;;5078150;28;20182;-81
2021/12/18 00:46:59;;;;;;;7.73;3.40;;;;;;;;;;5077931;28;20184;-86
2021/12/18 00:49:25;;;;;;;10.00;3.93;;;;;;;;;;5096673;28;20598;-82
2021/12/18 00:51:51;;;;;;;6.70;2.47;;;;;;;;;;5096388;28;20178;-82
2021/12/18 00:54:17;;;;;;;6.37;3.00;;;;;;;;;;5096347;28;20176;-82
2021/12/18 00:56:43;;;;;;;10.70;3.77;;;;;;;;;;5096338;28;20185;-82
2021/12/18 00:59:09;;;;;;;8.67;3.17;;;;;;;;;;5077714;28;20186;-82
2021/12/18 01:01:36;;;;;;;6.60;2.60;;;;;;;;;;5078135;28;20541;-82
2021/12/18 01:04:02;;;;;;;7.67;3.13;;;2.50;99.90;;;;;;5078216;28;20179;-87
2021/12/18 01:06:28;;;;;;;5.30;3.30;;;;;;;;;;5078006;28;20206;-82
2021/12/18 01:08:56;;;;;;;6.60;2.77;;;2.50;99.90;;;;;;5077963;28;20538;-82
2021/12/18 01:24:50;;;;;;;6.80;3.17;;;;;;;;;;5080710;28;20258;-82
2021/12/18 01:27:16;;;;;;;4.57;2.77;;;;;;;;;;5077169;28;20178;-82
2021/12/18 01:29:42;;;;;;;8.00;2.83;;;;;;;;;;5095750;28;20184;-82
2021/12/18 01:32:09;;;;;;;9.73;3.43;;;;;;;;;;5094848;28;20229;-83
2021/12/18 01:34:36;;;;;;;5.73;2.23;;;2.50;99.90;;;;;;5077230;28;20549;-82
2021/12/18 01:37:02;;;;;;;3.60;2.50;;;;;;;;;;5077405;28;20185;-81
2021/12/18 01:39:28;;;;;;;3.73;2.47;;;;;;;;;;5094790;28;20234;-81
2021/12/18 01:42:34;;;;;;;5.63;2.27;;;;;;;;;;5077411;28;20194;-82
2021/12/18 01:52:53;;;;;;;6.90;2.77;;;;;;;;;;5095461;28;20221;-82
2021/12/18 01:55:20;;;;;;;5.80;2.60;;;2.50;99.90;;;;;;5094892;28;20197;-82
2021/12/18 01:57:46;;;;;;;4.00;2.23;;;;;;;;;;5076685;28;20178;-82
2021/12/18 02:00:21;;;;;;;9.50;2.80;;;2.40;99.90;;;;;;5094768;28;20293;-82
2021/12/18 02:02:47;;;;;;;4.10;2.50;;;;;;;;;;5094767;28;20212;-81
2021/12/18 02:05:14;;;;;;;4.77;2.60;;;;;;;;;;5060051;28;20187;-82
2021/12/18 02:07:41;;;;;;;5.53;2.30;;;2.50;99.90;;;;;;5094775;28;20322;-82
2021/12/18 02:10:15;;;;;;;4.17;2.10;;;2.40;99.90;;;;;;5095232;28;20179;-82
2021/12/18 02:20:45;;;;;;;12.90;4.83;;;2.40;99.90;;;;;;5096650;28;20218;-82
2021/12/18 02:23:11;;;;;;;4.97;2.53;;;;;;;;;;5096942;28;20184;-82
2021/12/18 02:25:38;;;;;;;12.03;3.17;;;;;;;;;;5095154;28;20208;-81
2021/12/18 02:28:14;;;;;;;4.77;2.30;;;2.40;99.90;;;;;;5077009;28;20174;-81
2021/12/18 02:30:40;;;;;;;7.53;2.90;;;;;;;;;;5094773;28;20261;-82
2021/12/18 02:33:06;;;;;;;7.20;2.73;;;;;;;;;;5094315;28;20174;-82
2021/12/18 02:35:42;;;;;;;5.63;3.40;;;2.30;99.90;;;;;;5075820;28;20176;-82
2021/12/18 02:38:12;;;;;;;6.87;3.03;;;2.40;99.90;;;;;;5094572;28;20163;-81
2021/12/18 02:43:25;;;;;;;9.30;2.90;;;2.40;99.90;;;;;;5094280;28;20231;-82
2021/12/18 02:45:54;;;;;;;8.47;3.23;;;;;;;;;;5094624;28;20181;-82
2021/12/18 02:48:20;;;;;;;9.27;3.37;;;;;;;;;;5075898;28;20206;-82
2021/12/18 02:50:47;;;;;;;5.57;3.20;;;;;;;;;;5076206;28;20188;-81
2021/12/18 02:53:13;;;;;;;8.00;2.60;;;;;;;;;;5059392;28;20187;-82
2021/12/18 02:55:39;;;;;;;8.80;3.27;;;;;;;;;;5059189;28;20239;-82
2021/12/18 02:58:05;;;;;;;9.53;4.27;;;;;;;;;;5059412;28;20215;-82
2021/12/18 03:00:31;;;;;;;5.53;3.47;;;;;;;;;;5093402;28;20213;-82
2021/12/18 03:02:58;;;;;;;4.97;2.80;;;;;;;;;;5075881;28;20190;-81
2021/12/18 03:05:32;;;;;;;7.33;2.80;;;2.30;99.90;;;;;;5075454;28;20551;-82
2021/12/18 03:08:08;;;;;;;4.73;2.43;;;;;;;;;;5093970;28;20177;-81
2021/12/18 03:24:20;;;;;;;4.93;2.43;;;;;;;;;;5093619;28;20220;-82
2021/12/18 03:26:46;;;;;;;4.67;2.60;;;;;;;;;;5093325;28;20163;-81
2021/12/18 03:29:12;;;;;;;9.40;3.30;;;;;;;;;;5075326;28;20180;-82
2021/12/18 03:31:38;;;;;;;8.33;2.97;;;;;;;;;;5093101;28;20232;-82
2021/12/18 03:34:04;;;;;;;5.70;2.50;;;;;;;;;;5093384;28;20176;-81
2021/12/18 03:36:30;;;;;;;6.00;2.13;;;;;;;;;;5058644;28;20183;-82
2021/12/18 03:38:56;;;;;;;8.70;2.30;;;;;;;;;;5075324;28;20184;-81
2021/12/18 03:41:22;;;;;;;7.13;2.73;;;;;;;;;;5093291;28;20214;-81
2021/12/18 03:43:49;;;;;;;6.57;2.97;;;2.20;99.90;;;;;;5075052;28;20191;-82
2021/12/18 03:46:15;;;;;;;7.00;2.73;;;;;;;;;;5093094;28;20223;-81
2021/12/18 03:48:41;;;;;;;4.93;3.00;;;;;;;;;;5075078;28;20201;-82
2021/12/18 03:51:07;;;;;;;5.27;2.43;;;;;;;;;;5076275;28;20658;-81
2021/12/18 03:53:33;;;;;;;4.17;2.30;;;;;;;;;;5078967;28;20558;-82
2021/12/18 03:56:00;;;;;;;4.33;2.40;;;;;;;;;;5097473;28;20217;-82
2021/12/18 03:58:26;;;;;;;4.90;2.30;;;;;;;;;;5079522;28;20589;-82
2021/12/18 04:00:52;;;;;;;3.87;2.17;;;;;;;;;;5062356;28;20569;-82
2021/12/18 04:03:18;;;;;;;5.57;2.17;;;;;;;;;;5079380;28;20650;-82
2021/12/18 04:05:44;;;;;;;7.07;2.20;;;;;;;;;;5097625;28;20177;-82
2021/12/18 04:08:10;;;;;;;5.37;2.57;;;;;;;;;;5079421;28;20181;-81
2021/12/18 04:10:37;;;;;;;9.93;2.67;;;2.20;99.90;;;;;;5097036;28;20688;-81
2021/12/18 04:13:05;;;;;;;3.57;2.40;;;2.20;99.90;;;;;;5079229;28;20207;-82
2021/12/18 04:15:31;;;;;;;4.00;2.47;;;;;;;;;;5078898;28;20244;-82
2021/12/18 04:17:57;;;;;;;4.87;2.20;;;;;;;;;;5079213;28;20630;-82
2021/12/18 04:20:24;;;;;;;4.17;2.17;;;;;;;;;;5096882;28;20206;-82
2021/12/18 04:22:50;;;;;;;5.57;2.40;;;;;;;;;;5096780;28;20297;-82
2021/12/18 04:25:16;;;;;;;5.63;2.27;;;;;;;;;;5078902;28;20670;-82
2021/12/18 04:27:42;;;;;;;4.67;2.43;;;;;;;;;;5096738;28;20230;-82
2021/12/18 04:30:08;;;;;;;5.67;3.00;;;2.00;99.90;;;;;;5096895;28;20632;-82
2021/12/18 04:32:34;;;;;;;4.60;2.57;;;;;;;;;;5078449;28;20242;-81
2021/12/18 04:35:00;;;;;;;8.30;3.07;;;;;;;;;;5078522;28;20182;-82
2021/12/18 04:37:26;;;;;;;4.53;2.10;;;;;;;;;;5096722;28;20225;-81
2021/12/18 04:39:53;;;;;;;2.80;1.80;;;;;;;;;;5096495;28;20210;-81
2021/12/18 04:42:20;;;;;;;6.40;2.33;;;;;;;;;;5096632;28;20262;-82
2021/12/18 04:44:46;;;;;;;5.53;2.60;;;;;;;;;;5096738;28;20653;-82
2021/12/18 04:47:12;;;;;;;4.37;2.50;;;;;;;;;;5096699;28;20171;-82
2021/12/18 04:49:38;;;;;;;6.37;2.93;;;;;;;;;;5096143;28;20647;-82
2021/12/18 04:52:04;;;;;;;4.53;2.43;;;;;;;;;;5078608;28;20236;-82
2021/12/18 04:54:31;;;;;;;4.43;2.37;;;;;;;;;;5096678;28;20219;-81
2021/12/18 04:56:57;;;;;;;3.87;2.50;;;;;;;;;;5096062;28;20655;-82
2021/12/18 04:59:23;;;;;;;6.83;2.20;;;;;;;;;;5078168;28;20179;-82
2021/12/18 05:01:51;;;;;;;6.83;2.40;;;;;;;;;;5095746;28;20179;-82
2021/12/18 05:04:17;;;;;;;5.00;2.53;;;;;;;;;;5096128;28;20643;-82
2021/12/18 05:06:45;;;;;;;4.70;2.67;;;;;;;;;;5095817;28;20182;-83
2021/12/18 05:09:15;;;;;;;8.90;3.40;;;2.10;99.90;;;;;;5096597;28;20247;-81
2021/12/18 05:11:43;;;;;;;8.23;3.60;;;2.00;99.90;;;;;;5077880;28;20189;-82
2021/12/18 05:14:09;;;;;;;7.53;3.50;;;;;;;;;;5078234;28;20186;-81
2021/12/18 05:16:35;;;;;;;13.70;3.13;;;;;;;;;;5096136;28;20182;-81
2021/12/18 05:19:01;;;;;;;7.83;3.53;;;;;;;;;;5095845;28;20176;-81
2021/12/18 05:21:28;;;;;;;10.67;4.20;;;;;;;;;;5095673;28;20285;-81
2021/12/18 05:23:54;;;;;;;8.63;4.30;;;;;;;;;;5071701;28;20191;-81
2021/12/18 05:26:20;;;;;;;9.83;3.87;;;;;;;;;;5068279;28;20588;-82
2021/12/18 05:28:46;;;;;;;6.67;2.83;;;;;;;;;;5088980;28;20182;-82
2021/12/18 05:31:16;;;;;;;5.50;2.67;;;;;;;;;;5085385;28;20249;-81
2021/12/18 05:33:44;;;;;;;5.50;3.10;;;2.10;99.90;;;;;;5081465;28;20199;-82
2021/12/18 05:36:30;;;;;;;6.40;3.37;;;;;;;;;;5049901;28;20191;-81
2021/12/18 05:38:56;;;;;;;11.37;2.63;;;;;;;;;;5090815;28;20276;-82
2021/12/18 05:41:22;;;;;;;5.57;2.60;;;;;;;;;;5065402;28;20210;-81
2021/12/18 05:43:48;;;;;;;8.13;2.70;;;;;;;;;;5062300;28;20760;-83
2021/12/18 05:46:14;;;;;;;7.83;2.70;;;;;;;;;;5085571;28;20191;-81
2021/12/18 05:48:40;;;;;;;6.87;2.50;;;;;;;;;;5087771;28;20190;-81
2021/12/18 05:51:06;;;;;;;8.37;2.53;;;;;;;;;;5085766;28;20186;-81
2021/12/18 05:53:32;;;;;;;9.17;3.27;;;2.20;99.90;;;;;;5086680;28;20172;-81
2021/12/18 05:55:58;;;;;;;3.03;2.30;;;;;;;;;;5067928;28;20179;-82
2021/12/18 05:58:25;;;;;;;7.87;2.50;;;;;;;;;;5072137;28;20176;-82
2021/12/18 06:00:51;;;;;;;6.20;2.53;;;;;;;;;;5051545;28;20207;-81
2021/12/18 06:03:17;;;;;;;5.13;2.23;;;;;;;;;;5063056;28;20268;-80
2021/12/18 06:05:43;;;;;;;7.17;2.27;;;;;;;;;;5085993;28;20218;-81
2021/12/18 06:08:11;;;;;;;8.23;2.50;;;;;;;;;;5067598;28;20265;-81
2021/12/18 06:10:38;;;;;;;7.70;2.87;;;;;;;;;;5051334;28;20211;-82
2021/12/18 06:13:04;;;;;;;4.93;1.90;;;2.30;99.90;;;;;;5061690;28;20183;-80
2021/12/18 06:15:31;;;;;;;3.93;1.93;;;2.30;99.90;;;;;;5076662;28;20637;-81
2021/12/18 06:17:58;;;;;;;5.43;2.40;;;2.30;99.90;;;;;;5082176;28;20249;-81
2021/12/18 06:20:24;;;;;;;5.73;1.93;;;;;;;;;;5083540;28;20198;-81
2021/12/18 06:22:50;;;;;;;7.17;2.27;;;;;;;;;;5062495;28;20179;-81
2021/12/18 06:25:16;;;;;;;4.37;2.20;;;;;;;;;;5061017;28;20194;-81
2021/12/18 06:27:42;;;;;;;5.40;1.80;;;;;;;;;;5046408;28;20190;-81
2021/12/18 06:30:09;;;;;;;4.40;2.00;;;2.40;99.90;;;;;;5044821;28;20223;-81
2021/12/18 06:32:36;;;;;;;7.40;2.50;;;;;;;;;;5076556;28;20233;-81
2021/12/18 06:35:02;;;;;;;4.17;2.00;;;;;;;;;;5061207;28;20267;-82
2021/12/18 06:37:28;;;;;;;4.90;2.20;;;;;;;;;;5072582;28;20204;-81
2021/12/18 06:39:54;;;;;;;4.13;2.07;;;;;;;;;;5077107;28;20290;-82
2021/12/18 06:42:20;;;;;;;4.83;2.17;;;;;;;;;;5073431;28;20191;-82
2021/12/18 06:44:46;;;;;;;5.70;2.30;;;;;;;;;;5088560;28;20199;-82
2021/12/18 06:47:12;;;;;;;4.27;2.33;;;;;;;;;;5090482;28;20266;-82
2021/12/18 06:49:39;;;;;;;7.97;2.43;;;;;;;;;;5094103;28;20187;-83
2021/12/18 06:52:04;;;;;;;4.40;2.23;;;2.30;99.90;;;;;;5093641;28;20213;-84
2021/12/18 06:54:31;;;;;;;5.57;2.33;;;;;;;;;;5058298;28;20218;-81
2021/12/18 06:56:57;;;;;;;8.67;3.17;;;;;;;;;;5093948;28;20182;-82
2021/12/18 06:59:23;;;;;;;8.60;2.87;;;;;;;;;;5083253;28;20205;-83
2021/12/18 07:01:52;;;;;;;4.63;2.70;;;;;;;;;;5058334;28;20215;-82
2021/12/18 07:04:20;;;;;;;6.07;2.20;;;;;;;;;;5060810;28;20223;-82
2021/12/18 07:06:46;;;;;;;4.90;2.30;;;;;;;;;;5094120;28;20187;-82
2021/12/18 07:09:12;;;;;;;10.27;3.17;;;;;;;;;;5075339;28;20192;-81
2021/12/18 07:11:38;;;;;;;9.60;2.43;;;;;;;;;;5069978;28;20183;-80
2021/12/18 07:14:04;;;;;;;5.03;2.70;;;;;;;;;;5075546;28;20192;-81
2021/12/18 07:16:30;;;;;;;10.33;2.90;;;;;;;;;;5073023;28;20222;-83
2021/12/18 07:18:56;;;;;;;10.73;5.43;;;;;;;;;;5074522;28;20200;-82
2021/12/18 07:21:22;;;;;;;14.00;6.00;;;;;;;;;;5073408;28;20218;-80
2021/12/18 07:23:48;;;;;;;23.03;9.47;;;;;;;;;;5072090;28;20202;-80
2021/12/18 07:26:14;;;;;;;13.97;6.40;;;;;;;;;;5057430;28;20220;-80
2021/12/18 07:28:41;;;;;;;6.07;3.60;;;;;;;;;;5091523;28;20182;-80
2021/12/18 07:31:07;;;;;;;11.30;4.07;;;;;;;;;;5091753;28;20297;-81
2021/12/18 07:33:35;;;;;;;6.87;2.80;;;;;;;;;;5073298;28;20191;-82
2021/12/18 07:36:01;;;;;;;7.33;3.00;;;;;;;;;;5073832;28;20561;-80
2021/12/18 07:38:27;;;;;;;6.30;2.37;;;;;;;;;;5091786;28;20177;-81
2021/12/18 07:40:54;;;;;;;6.77;2.77;;;;;;;;;;5091991;28;20223;-81
2021/12/18 07:43:20;;;;;;;11.57;3.50;;;;;;;;;;5091389;28;20179;-81
2021/12/18 07:45:46;;;;;;;7.93;3.30;;;;;;;;;;5091737;28;20920;-81
2021/12/18 07:48:12;;;;;;;9.37;3.83;;;;;;;;;;5073127;28;20189;-81
2021/12/18 07:50:38;;;;;;;8.40;3.43;;;;;;;;;;5069658;28;20183;-81
2021/12/18 07:53:04;;;;;;;11.50;3.73;;;;;;;;;;5068072;28;20195;-80
2021/12/18 07:55:30;;;;;;;7.73;3.40;;;;;;;;;;5091358;28;20677;-82
2021/12/18 07:57:56;;;;;;;17.27;3.90;;;;;;;;;;5054543;28;20199;-81
2021/12/18 08:00:23;;;;;;;13.33;3.20;;;;;;;;;;5091297;28;20212;-80
2021/12/18 08:02:49;;;;;;;10.10;3.60;;;;;;;;;;5074023;28;20213;-81
2021/12/18 08:05:15;;;;;;;9.67;3.63;;;2.80;99.90;;;;;;5073526;28;20182;-81
2021/12/18 08:07:42;;;;;;;7.93;3.83;;;2.80;99.90;;;;;;5072980;28;20274;-80
2021/12/18 08:10:08;;;;;;;10.87;3.87;;;2.60;99.90;;;;;;5056598;28;20193;-82
2021/12/18 08:12:34;;;;;;;8.63;3.47;;;;;;;;;;5065854;28;20641;-81
2021/12/18 08:15:01;;;;;;;16.70;3.70;;;;;;;;;;5091533;28;20671;-81
2021/12/18 08:17:27;;;;;;;12.03;4.97;;;;;;;;;;5090756;28;20650;-81
2021/12/18 08:19:53;;;;;;;9.63;4.03;;;;;;;;;;5073419;28;20246;-84
2021/12/18 08:22:19;;;;;;;9.50;4.53;;;;;;;;;;5072796;28;20220;-81
2021/12/18 08:24:45;;;;;;;6.50;4.13;;;;;;;;;;5078254;28;20660;-80
2021/12/18 08:27:11;;;;;;;8.77;3.83;;;;;;;;;;5057352;28;20199;-80
2021/12/18 08:29:37;;;;;;;15.83;4.57;;;;;;;;;;5056249;28;20192;-81
2021/12/18 08:32:03;;;;;;;7.43;4.00;;;;;;;;;;5076115;28;20264;-81
2021/12/18 08:34:30;;;;;;;7.97;4.03;;;;;;;;;;5054737;28;20191;-81
2021/12/18 08:36:56;;;;;;;10.10;3.47;;;;;;;;;;5056215;28;20198;-80
2021/12/18 08:39:22;;;;;;;6.53;4.27;;;;;;;;;;5044857;28;20188;-81
2021/12/18 08:41:48;;;;;;;6.93;3.77;;;;;;;;;;5093739;28;20186;-81
2021/12/18 08:44:15;;;;;;;6.77;3.97;;;;;;;;;;5074152;28;20184;-81
2021/12/18 08:46:42;;;;;;;9.40;3.30;;;;;;;;;;5054249;28;20183;-82
2021/12/18 08:49:08;;;;;;;13.73;3.90;;;;;;;;;;5076699;28;20208;-86
2021/12/18 08:51:37;;;;;;;9.63;3.97;;;2.60;99.90;;;;;;5094794;28;20651;-83
2021/12/18 08:54:03;;;;;;;9.77;3.67;;;;;;;;;;5091174;28;20644;-80
2021/12/18 08:56:29;;;;;;;11.57;3.80;;;;;;;;;;5094096;28;20298;-80
2021/12/18 08:58:55;;;;;;;10.30;4.60;;;2.90;99.90;;;;;;5093019;28;20654;-82
2021/12/18 09:01:23;;;;;;;6.97;4.43;;;;;;;;;;5092942;28;20211;-80
2021/12/18 09:03:49;;;;;;;11.03;5.60;;;2.70;99.90;;;;;;5093378;28;20635;-81
2021/12/18 09:06:15;;;;;;;14.70;8.07;;;;;;;;;;5091542;28;20194;-83
2021/12/18 09:08:41;;;;;;;20.07;8.03;;;;;;;;;;5092704;28;20227;-82
2021/12/18 09:11:07;;;;;;;22.03;8.67;;;2.70;99.90;;;;;;5090447;28;20193;-82
2021/12/18 09:13:33;;;;;;;21.30;9.70;;;;;;;;;;5092442;28;20193;-80
2021/12/18 09:15:59;;;;;;;13.00;6.50;;;;;;;;;;5074715;28;20190;-85
2021/12/18 09:18:25;;;;;;;18.93;9.33;;;2.50;99.90;;;;;;5074830;28;20232;-81
2021/12/18 09:20:51;;;;;;;21.23;8.70;;;;;;;;;;5075303;28;20218;-81
2021/12/18 09:23:19;;;;;;;18.00;8.77;;;;;;;;;;5074392;28;20640;-82
2021/12/18 09:25:45;;;;;;;26.00;8.90;;;2.70;99.90;;;;;;5075571;28;20176;-83
2021/12/18 09:28:11;;;;;;;17.20;8.37;;;;;;;;;;5055397;28;20274;-82
2021/12/18 09:30:38;;;;;;;20.23;8.97;;;;;;;;;;5074958;28;20187;-83
2021/12/18 09:33:04;;;;;;;37.30;22.63;;;;;;;;;;5092944;28;20261;-83
2021/12/18 09:35:30;;;;;;;13.67;6.13;;;;;;;;;;5093436;28;20177;-82
2021/12/18 09:37:56;;;;;;;15.33;7.80;;;2.70;99.90;;;;;;5092852;28;20226;-83
2021/12/18 09:40:22;;;;;;;18.10;10.00;;;;;;;;;;5074462;28;20268;-81
2021/12/18 09:42:48;;;;;;;20.13;9.30;;;;;;;;;;5074882;28;20190;-82
2021/12/18 09:45:16;;;;;;;22.73;10.00;;;2.60;99.90;;;;;;5054549;28;20260;-81
2021/12/18 09:47:44;;;;;;;22.50;9.83;;;2.70;99.90;;;;;;5067517;28;20175;-81
2021/12/18 09:50:10;;;;;;;21.43;8.60;;;;;;;;;;5091798;28;20800;-82
2021/12/18 09:52:36;;;;;;;21.57;12.43;;;;;;;;;;5092334;28;20266;-82
2021/12/18 09:55:05;;;;;;;19.67;10.07;;;2.70;99.90;;;;;;5056580;28;20199;-82
2021/12/18 09:57:32;;;;;;;14.43;9.30;;;;;;;;;;5073664;28;20754;-83
2021/12/18 09:59:58;;;;;;;15.13;8.03;;;;;;;;;;5073712;28;20207;-82
2021/12/18 10:02:24;;;;;;;20.27;10.33;;;;;;;;;;5073758;28;20193;-84
2021/12/18 10:04:50;;;;;;;16.93;8.70;;;;;;;;;;5090044;28;20305;-83
2021/12/18 10:07:21;;;;;;;16.43;9.37;;;2.50;99.90;;;;;;5086583;28;20173;-81
2021/12/18 10:09:49;;;;;;;17.23;8.27;;;2.70;99.90;;;;;;5086830;28;20187;-82
2021/12/18 10:12:22;;;;;;;20.17;9.03;;;2.70;99.90;;;;;;5074342;28;20186;-82
2021/12/18 10:14:54;;;;;;;16.63;10.43;;;2.70;99.90;;;;;;5092972;28;20186;-83
2021/12/18 10:17:38;;;;;;;18.13;9.43;;;2.70;99.90;;;;;;5074342;28;20620;-84
2021/12/18 10:20:09;;;;;;;21.80;9.13;;;2.70;99.90;;;;;;5092432;28;20224;-81
2021/12/18 10:22:36;;;;;;;21.83;10.40;;;2.70;99.90;;;;;;5074216;28;20187;-83
2021/12/18 10:25:06;;;;;;;22.30;11.00;;;2.70;99.90;;;;;;5074646;28;20222;-82
2021/12/18 10:27:33;;;;;;;21.00;10.67;;;;;;;;;;5074199;28;20183;-83
2021/12/18 10:30:16;;;;;;;21.83;10.83;;;2.70;99.90;;;;;;5091741;28;20194;-83
2021/12/18 10:32:58;;;;;;;17.23;11.03;;;2.80;99.90;;;;;;5091576;28;21014;-82
2021/12/18 10:35:51;;;;;;;21.37;10.47;;;2.80;99.90;;;;;;5091466;28;20543;-82
2021/12/18 10:38:49;;;;;;;28.90;16.77;;;2.80;99.90;;;;;;5073774;28;20175;-83
2021/12/18 10:41:20;;;;;;;31.73;16.90;;;3.00;99.90;;;;;;5073492;28;20217;-82
2021/12/18 10:44:08;;;;;;;20.27;10.60;;;2.90;99.90;;;;;;5091247;28;20220;-82
2021/12/18 10:46:37;;;;;;;25.90;12.33;;;2.80;99.90;;;;;;5072955;28;20193;-82
2021/12/18 10:49:09;;;;;;;34.17;17.60;;;2.70;99.90;;;;;;5073842;28;20186;-82
2021/12/18 10:51:36;;;;;;;27.60;14.13;;;2.80;99.90;;;;;;5088779;28;20186;-82
2021/12/18 10:54:02;;;;;;;25.33;12.50;;;;;;;;;;5062031;28;20189;-82
2021/12/18 10:56:51;;;;;;;27.83;14.13;;;2.90;99.90;;;;;;5073246;28;20209;-83
2021/12/18 10:59:26;;;;;;;21.97;11.50;;;3.00;99.90;;;;;;5073114;28;20665;-81
2021/12/18 11:01:57;;;;;;;27.07;13.30;;;2.90;99.90;;;;;;5089407;28;20538;-82
2021/12/18 11:04:30;;;;;;;21.90;10.70;;;3.00;99.90;;;;;;5056650;28;20193;-84
2021/12/18 11:06:57;;;;;;;20.93;11.77;;;;;;;;;;5071842;28;20183;-81
2021/12/18 11:09:32;;;;;;;22.57;12.27;;;2.40;99.90;;;;;;5074289;28;20186;-81
2021/12/18 11:14:34;;;;;;;26.57;12.47;;;3.00;99.90;;;;;;5091470;28;20193;-86
2021/12/18 11:17:03;;;;;;;23.53;13.17;;;3.00;99.90;;;;;;5092758;28;20185;-84
2021/12/18 11:19:31;;;;;;;28.73;11.83;;;2.90;99.90;;;;;;5073334;28;20619;-84
2021/12/18 11:22:12;;;;;;;23.73;11.13;;;2.80;99.90;;;;;;5074744;28;20201;-81
2021/12/18 11:24:40;;;;;;;15.10;8.67;;;;;;;;;;5090833;28;20195;-80
2021/12/18 11:27:14;;;;;;;18.27;11.10;;;3.30;99.90;;;;;;5090693;28;20182;-80
2021/12/18 11:29:55;;;;;;;24.63;13.50;;;2.80;99.90;;;;;;5070744;28;20341;-81
2021/12/18 11:32:24;;;;;;;24.53;14.80;;;2.90;99.90;;;;;;5089662;28;20228;-81
2021/12/18 11:34:54;;;;;;;19.83;11.57;;;2.90;99.90;;;;;;5070717;28;20182;-81
2021/12/18 11:37:20;;;;;;;18.20;11.20;;;;;;;;;;5088770;28;20185;-82
2021/12/18 11:39:49;;;;;;;18.63;10.67;;;2.90;99.90;;;;;;5059559;28;20226;-82
2021/12/18 11:42:16;;;;;;;11.27;8.23;;;2.80;99.90;;;;;;5078146;28;20242;-82
2021/12/18 11:44:53;;;;;;;19.37;8.23;;;2.90;99.90;;;;;;5066030;28;20182;-82
2021/12/18 11:47:32;;;;;;;19.70;9.10;;;3.00;99.90;;;;;;5060920;28;20179;-81
2021/12/18 11:50:18;;;;;;;14.10;8.63;;;2.80;99.90;;;;;;5073905;28;20276;-83
2021/12/18 11:53:19;;;;;;;17.67;9.67;;;2.80;99.90;;;;;;5091489;28;20192;-83
2021/12/18 11:55:50;;;;;;;19.73;9.33;;;2.80;99.90;;;;;;5076401;28;20245;-83
2021/12/18 11:58:21;;;;;;;21.97;10.33;;;2.80;99.90;;;;;;5077388;28;20178;-82
2021/12/18 12:00:49;;;;;;;22.10;9.53;;;;;;;;;;5072846;28;20218;-83
2021/12/18 12:03:40;;;;;;;17.80;8.23;;;2.60;99.90;;;;;;5073158;28;20179;-82
2021/12/18 12:06:33;;;;;;;19.63;8.97;;;2.80;99.90;;;;;;5072292;28;20186;-82
2021/12/18 12:09:42;;;;;;;11.93;7.50;;;2.60;99.90;;;;;;5069530;28;20183;-82
2021/12/18 12:12:07;;;;;;;17.10;8.83;;;2.70;99.90;;;;;;5084675;28;20187;-82
2021/12/18 12:14:43;;;;;;;16.07;8.27;;;2.70;99.90;;;;;;5071053;28;20272;-81
2021/12/18 12:17:27;;;;;;;15.37;7.80;;;2.70;99.90;;;;;;5088073;28;20185;-81
2021/12/18 12:19:59;;;;;;;20.13;9.77;;;2.60;99.90;;;;;;5053690;28;20223;-81
2021/12/18 12:22:52;;;;;;;24.23;11.57;;;2.40;99.90;;;;;;5086350;28;20179;-81
2021/12/18 12:25:36;;;;;;;21.60;10.80;;;2.40;99.90;;;;;;5087968;28;20188;-81
2021/12/18 12:28:13;;;;;;;21.47;12.03;;;2.10;99.90;;;;;;5090359;28;20215;-80
2021/12/18 12:30:52;;;;;;;21.47;12.10;;;2.40;99.90;;;;;;5090015;28;20191;-81
2021/12/18 12:33:32;;;;;;;25.40;11.73;;;2.40;99.90;;;;;;5091355;28;20310;-82
2021/12/18 12:36:05;;;;;;;20.83;10.40;;;2.40;99.90;;;;;;5077759;28;20488;-81
2021/12/18 12:38:57;;;;;;;25.87;12.67;;;2.40;99.90;;;;;;5079055;28;20244;-82
2021/12/18 12:41:26;;;;;;;25.07;12.00;;;;;;;;;;5066120;28;20237;-82
2021/12/18 12:43:54;;;;;;;30.47;12.13;;;2.40;99.90;;;;;;5081274;28;20227;-82
2021/12/18 12:46:21;;;;;;;30.57;12.83;;;2.40;99.90;;;;;;5089148;28;20186;-81
2021/12/18 12:49:11;;;;;;;24.07;14.50;;;2.20;99.90;;;;;;5069849;28;20259;-83
2021/12/18 12:51:59;;;;;;;20.80;9.80;;;2.30;99.90;;;;;;5086314;28;20281;-86
2021/12/18 12:54:43;;;;;;;24.10;11.00;;;2.30;99.90;;;;;;5070858;28;20189;-82
2021/12/18 12:57:26;;;;;;;30.33;11.57;;;2.10;99.90;;;;;;5071690;28;20179;-82
2021/12/18 13:00:05;;;;;;;19.17;9.40;;;2.30;99.90;;;;;;5067793;28;20214;-84
2021/12/18 13:02:37;;;;;;;25.90;12.27;;;2.30;99.90;;;;;;5076503;28;20186;-82
2021/12/18 13:05:10;;;;;;;29.93;13.40;;;2.60;99.90;;;;;;5074329;28;20179;-83
2021/12/18 13:07:54;;;;;;;33.33;15.03;;;2.40;99.90;;;;;;5070647;28;20213;-83
2021/12/18 13:10:34;;;;;;;36.27;14.37;;;2.40;99.90;;;;;;5074272;28;20233;-83
2021/12/18 13:13:03;;;;;;;26.57;13.77;;;2.40;99.90;;;;;;5074695;28;20201;-82
2021/12/18 13:15:29;;;;;;;30.33;14.20;;;;;;;;;;5091578;28;20176;-82
2021/12/18 13:18:09;;;;;;;30.40;15.93;;;2.00;99.90;;;;;;5088777;28;20190;-82
2021/12/18 13:20:55;;;;;;;31.70;13.97;;;2.50;99.90;;;;;;5068361;28;20218;-82
2021/12/18 13:23:21;;;;;;;32.20;12.57;;;;;;;;;;5086966;28;20638;-84
2021/12/18 13:25:50;;;;;;;31.47;14.57;;;2.20;99.90;;;;;;5069513;28;20666;-82
2021/12/18 13:28:16;;;;;;;36.93;13.33;;;;;;;;;;5072626;28;20584;-87
2021/12/18 13:30:42;;;;;;;28.83;14.17;;;;;;;;;;5073287;28;20191;-84
2021/12/18 13:33:08;;;;;;;34.10;14.60;;;2.10;99.90;;;;;;5072378;28;20224;-84
2021/12/18 13:35:37;;;;;;;31.70;15.87;;;2.00;99.90;;;;;;5073565;28;20221;-84
2021/12/18 13:38:14;;;;;;;39.13;16.67;;;1.80;99.90;;;;;;5071441;28;20191;-83
2021/12/18 13:40:48;;;;;;;37.40;16.47;;;1.60;99.90;;;;;;5068752;28;20252;-82
2021/12/18 13:43:17;;;;;;;34.80;17.13;;;2.00;99.90;;;;;;5089466;28;20797;-82
2021/12/18 13:45:51;;;;;;;36.00;16.70;;;1.90;99.90;;;;;;5071764;28;20230;-84
2021/12/18 13:48:18;;;;;;;31.17;15.73;;;1.90;99.90;;;;;;5091924;28;20650;-85
2021/12/18 13:50:59;;;;;;;29.03;13.87;;;1.80;99.90;;;;;;5094638;28;20194;-87
2021/12/18 13:53:26;;;;;;;33.70;15.50;;;1.80;99.90;;;;;;5090295;28;20170;-86
2021/12/18 13:55:57;;;;;;;29.30;15.83;;;1.80;99.90;;;;;;5057245;28;20178;-90
2021/12/18 13:58:38;;;;;;;36.13;17.50;;;1.80;99.90;;;;;;5075840;28;20185;-91
2021/12/18 14:01:09;;;;;;;43.83;16.33;;;1.70;99.90;;;;;;5093111;28;20298;-85
2021/12/18 14:04:01;;;;;;;32.17;15.10;;;1.70;99.90;;;;;;5082458;28;20207;-86
2021/12/18 14:06:29;;;;;;;31.83;15.33;;;;;;;;;;5091827;28;20241;-84
2021/12/18 14:09:30;;;;;;;31.77;15.63;;;1.70;99.90;;;;;;5089666;28;20187;-82
2021/12/18 14:12:07;;;;;;;34.53;15.73;;;1.80;99.90;;;;;;5084319;28;20189;-84
2021/12/18 14:14:33;;;;;;;42.57;15.87;;;;;;;;;;5091919;28;20179;-84
2021/12/18 14:16:59;;;;;;;34.20;16.43;;;;;;;;;;5095021;28;20273;-84
2021/12/18 14:19:27;;;;;;;32.27;15.83;;;1.70;99.90;;;;;;5094625;28;20600;-84
2021/12/18 14:22:02;;;;;;;30.17;16.73;;;;;;;;;;5064766;28;20214;-91
2021/12/18 14:24:29;;;;;;;36.83;17.40;;;;;;;;;;5087538;28;20189;-86
2021/12/18 14:27:06;;;;;;;32.57;15.37;;;1.50;99.90;;;;;;5077163;28;20659;-84
2021/12/18 14:29:37;;;;;;;41.80;17.60;;;1.70;99.90;;;;;;5089292;28;20224;-90
2021/12/18 14:32:08;;;;;;;43.03;16.87;;;1.70;99.90;;;;;;5074514;28;20238;-88
2021/12/18 14:34:39;;;;;;;36.17;16.13;;;1.70;99.90;;;;;;5069146;28;20224;-86
2021/12/18 14:37:19;;;;;;;33.97;17.43;;;3.20;99.90;;;;;;5073592;28;20244;-84
2021/12/18 14:39:47;;;;;;;39.70;20.33;;;;;;;;;;5090279;28;20198;-85
2021/12/18 14:42:30;;;;;;;37.03;17.03;;;1.60;99.90;;;;;;5075803;28;20517;-84
2021/12/18 14:45:04;;;;;;;31.97;17.47;;;1.70;99.90;;;;;;5091655;28;20175;-84
2021/12/18 14:47:43;;;;;;;42.13;17.57;;;1.80;99.90;;;;;;5075858;28;20183;-88
2021/12/18 14:50:22;;;;;;;42.30;19.67;;;1.50;99.90;;;;;;5083273;28;20189;-84